Time;durP1;ratioP1;P1;durP2;ratioP2;P2;SDS_P1;SDS_P2;PMS_P1;PMS_P2;Temp;Humidity;BMP_temperature;BMP_pressure;BME280_temperature;BME280_humidity;BME280_pressure;Samples;Min_cycle;Max_cycle;Signal;HPM_P1;HPM_P2
2021/09/23 00:00:51;;;;;;;108.83;102.20;;;;;;;14.97;74.73;100554.84;5024457;28;20464;-68
2021/09/23 00:03:43;;;;;;;105.47;99.03;;;;;;;14.88;75.52;100534.06;5018452;28;20493;-68
2021/09/23 00:06:12;;;;;;;118.43;111.27;;;;;;;14.80;76.34;100536.59;5019087;28;20467;-68
2021/09/23 00:08:41;;;;;;;118.43;111.23;;;;;;;14.88;75.04;100525.94;5028232;28;21007;-69
2021/09/23 00:11:09;;;;;;;103.40;97.07;;;;;;;14.99;74.73;100528.53;5028197;28;20486;-68
2021/09/23 00:13:37;;;;;;;96.53;90.57;;;;;;;14.98;75.10;100515.13;5027665;28;20483;-68
2021/09/23 00:16:06;;;;;;;104.57;98.17;;;;;;;14.99;75.62;100512.31;5042521;28;20459;-69
2021/09/23 00:18:34;;;;;;;80.37;75.27;;;;;;;14.97;75.53;100502.63;5027326;28;20481;-69
2021/09/23 00:21:04;;;;;;;113.87;106.97;;;;;;;14.93;74.77;100498.47;5027951;28;20578;-69
2021/09/23 00:23:33;;;;;;;63.87;59.70;;;;;;;14.88;75.92;100491.63;5031773;28;20435;-69
2021/09/23 00:26:03;;;;;;;85.57;80.20;;;;;;;14.88;75.47;100490.78;5032352;28;20460;-68
2021/09/23 00:28:31;;;;;;;77.70;72.77;;;;;;;14.97;75.29;100499.91;5028249;28;20514;-68
2021/09/23 00:30:59;;;;;;;94.77;88.87;;;;;;;14.91;75.73;100491.38;5032348;28;21000;-68
2021/09/23 00:33:27;;;;;;;143.60;135.07;;;;;;;15.02;75.38;100489.56;5031126;28;20465;-68
2021/09/23 00:35:55;;;;;;;140.57;132.17;;;;;;;14.95;75.36;100486.53;5032071;28;20629;-68
2021/09/23 00:38:23;;;;;;;141.73;133.27;;;;;;;14.80;75.99;100461.75;5032051;28;20451;-68
2021/09/23 00:40:51;;;;;;;151.17;142.17;;;;;;;14.86;76.32;100472.00;5030702;28;21052;-69
2021/09/23 00:43:21;;;;;;;140.30;131.90;;;;;;;14.96;75.62;100476.56;5031961;28;20451;-68
2021/09/23 00:45:49;;;;;;;158.97;149.57;;;;;;;14.91;76.29;100469.72;5030409;28;20815;-68
2021/09/23 00:48:17;;;;;;;155.67;146.43;;;;;;;14.95;76.37;100469.44;5030526;28;20972;-68
2021/09/23 00:50:45;;;;;;;79.37;74.37;;;;;;;14.93;76.11;100455.22;5019910;28;20495;-67
2021/09/23 00:53:14;;;;;;;77.83;72.90;;;;;;;14.97;75.93;100457.50;5046711;28;20458;-68
2021/09/23 00:55:43;;;;;;;81.77;76.67;;;;;;;14.97;76.18;100456.63;5029921;28;20532;-69
2021/09/23 00:58:12;;;;;;;74.53;69.73;;;;;;;14.94;76.39;100438.00;5045987;28;20459;-69
2021/09/23 01:00:45;;;;;;;75.03;70.13;;;;;;;14.70;76.26;100382.47;5027038;28;20494;-68
2021/09/23 01:03:18;;;;;;;74.70;70.00;;;;;;;14.86;76.48;100395.44;5023993;28;20516;-69
2021/09/23 01:05:49;;;;;;;71.77;66.97;;;;;;;14.81;78.37;100387.75;5032977;28;21018;-69
2021/09/23 01:08:17;;;;;;;71.47;66.87;;;;;;;14.94;77.33;100400.13;5024316;28;20455;-69
2021/09/23 01:10:46;;;;;;;72.63;68.03;;;;;;;15.03;76.97;100386.66;5014071;28;20479;-69
2021/09/23 01:13:15;;;;;;;59.87;55.97;;;;;;;15.04;77.83;100388.34;5031173;28;20491;-69
2021/09/23 01:16:07;;;;;;;68.43;63.97;;;;;;;15.13;77.17;100375.81;5038120;28;21027;-69
2021/09/23 01:19:02;;;;;;;76.33;71.53;;;;;;;15.01;77.31;100350.78;5027535;28;20976;-69
2021/09/23 01:21:35;;;;;;;72.73;68.13;;;;;;;15.07;77.28;100360.16;5026622;28;21030;-69
2021/09/23 01:24:06;;;;;;;78.20;73.10;;;;;;;14.78;77.47;100315.03;5032772;28;20459;-69
2021/09/23 01:26:35;;;;;;;73.97;69.17;;;;;;;14.75;78.52;100314.47;5029580;28;20463;-69
2021/09/23 01:29:14;;;;;;;75.13;70.37;;;;;;;14.85;79.06;100335.09;5029830;28;20914;-69
2021/09/23 01:31:50;;;;;;;73.47;68.77;;;;;;;14.85;78.39;100326.13;5046159;28;20526;-69
2021/09/23 01:34:18;;;;;;;71.87;67.27;;;;;;;14.82;78.82;100312.91;5029819;28;20494;-68
2021/09/23 01:36:48;;;;;;;77.00;72.17;;;;;;;14.83;78.71;100303.78;5046389;28;21081;-68
2021/09/23 01:39:18;;;;;;;74.10;69.40;;;;;;;14.94;76.97;100306.34;5046309;28;20541;-68
2021/09/23 01:41:46;;;;;;;73.17;68.57;;;;;;;14.83;78.44;100295.69;5029421;28;20494;-69
2021/09/23 01:44:17;;;;;;;75.03;70.30;;;;;;;14.89;77.50;100281.59;5029656;28;20550;-68
2021/09/23 01:46:45;;;;;;;72.67;68.07;;;;;;;14.81;78.41;100286.88;5045875;28;20477;-67
2021/09/23 01:49:23;;;;;;;70.13;65.53;;;;;;;14.59;78.64;100259.09;5046131;28;20447;-68
2021/09/23 01:51:53;;;;;;;68.03;63.67;;;;;;;14.80;77.78;100258.97;5045628;28;20488;-68
2021/09/23 01:54:23;;;;;;;62.37;58.33;;;;;;;14.89;77.86;100271.63;5029281;28;20559;-68
2021/09/23 01:56:54;;;;;;;62.27;58.23;;;;;;;14.93;77.56;100272.19;5045866;28;20462;-68
2021/09/23 01:59:24;;;;;;;79.67;74.67;;;;;;;14.96;76.44;100280.00;5045722;28;20460;-68
2021/09/23 02:01:58;;;;;;;72.93;68.33;;;;;;;14.81;77.67;100279.63;5028373;28;20847;-68
2021/09/23 02:04:26;;;;;;;75.03;70.27;;;;;;;14.81;78.06;100268.78;5028782;28;20485;-68
2021/09/23 02:06:56;;;;;;;76.87;72.00;;;;;;;14.35;78.08;100201.03;5045952;28;20459;-68
2021/09/23 02:09:25;;;;;;;75.23;70.47;;;;;;;14.79;78.34;100259.97;5029279;28;20514;-68
2021/09/23 02:11:53;;;;;;;72.90;68.30;;;;;;;14.97;76.47;100261.94;5042576;28;20502;-68
2021/09/23 02:14:21;;;;;;;74.93;70.20;;;;;;;14.95;77.56;100263.94;5037390;28;20555;-68
2021/09/23 02:16:49;;;;;;;75.80;71.00;;;;;;;14.88;77.15;100253.69;5041175;28;20445;-68
2021/09/23 02:19:38;;;;;;;84.30;79.03;;;;;;;14.69;78.25;100204.19;5020538;28;20508;-68
2021/09/23 02:22:11;;;;;;;81.73;76.63;;;;;;;14.87;78.38;100229.50;5026195;28;20444;-68
2021/09/23 02:24:40;;;;;;;71.53;66.97;;;;;;;14.87;77.83;100219.56;5039582;28;21049;-68
2021/09/23 02:27:08;;;;;;;77.20;72.33;;;;;;;14.82;78.17;100205.63;5018017;28;20459;-68
2021/09/23 02:29:37;;;;;;;86.40;81.00;;;;;;;14.75;79.27;100209.06;5025104;28;20546;-69
2021/09/23 02:32:05;;;;;;;67.53;63.17;;;;;;;14.87;78.77;100205.19;5019371;28;20510;-68
2021/09/23 02:34:34;;;;;;;77.80;72.80;;;;;;;14.60;78.79;100173.47;5027413;28;20444;-68
2021/09/23 02:37:02;;;;;;;78.23;73.30;;;;;;;14.85;78.52;100193.66;5040917;28;20593;-68
2021/09/23 02:39:32;;;;;;;81.40;76.23;;;;;;;14.87;78.55;100199.78;5028194;28;21021;-69
2021/09/23 02:42:00;;;;;;;85.17;79.77;;;;;;;14.84;78.53;100198.22;5044581;28;20503;-69
2021/09/23 02:44:28;;;;;;;78.20;73.23;;;;;;;14.85;79.41;100181.00;5044384;28;20458;-69
2021/09/23 02:46:56;;;;;;;79.70;74.63;;;;;;;14.80;79.73;100180.59;5044841;28;20460;-69
2021/09/23 02:49:25;;;;;;;80.47;75.33;;;;;;;14.79;79.64;100165.34;5027777;28;20828;-69
2021/09/23 02:51:53;;;;;;;71.73;67.10;;;;;;;14.78;79.54;100154.69;5044192;28;20490;-69
2021/09/23 02:54:22;;;;;;;80.20;75.00;;;;;;;14.79;80.09;100161.81;5043636;28;20474;-69
2021/09/23 02:56:51;;;;;;;65.93;61.60;;;;;;;14.83;79.86;100160.50;5027392;28;20525;-69
2021/09/23 02:59:19;;;;;;;75.93;71.03;;;;;;;14.77;80.26;100155.69;5025437;28;20482;-69
2021/09/23 03:01:47;;;;;;;66.50;62.13;;;;;;;14.79;79.96;100153.69;5044323;28;20547;-70
2021/09/23 03:04:16;;;;;;;63.20;59.03;;;;;;;14.74;79.73;100143.31;5044423;28;20543;-69
2021/09/23 03:06:44;;;;;;;107.43;100.90;;;;;;;14.63;79.81;100108.34;5044078;28;20946;-69
2021/09/23 03:09:12;;;;;;;132.03;124.10;;;;;;;14.85;79.50;100129.63;5025401;28;20840;-70
2021/09/23 03:11:42;;;;;;;167.93;158.07;;;;;;;14.85;79.51;100123.38;5044020;28;20967;-69
2021/09/23 03:14:11;;;;;;;114.40;107.47;;;;;;;14.86;79.79;100119.66;5024722;28;20467;-69
2021/09/23 03:16:39;;;;;;;159.20;149.80;;;;;;;14.91;78.71;100122.78;5042600;28;20463;-69
2021/09/23 03:19:07;;;;;;;142.13;133.63;;;;;;;14.99;78.35;100122.88;5028052;28;20440;-69
2021/09/23 03:21:37;;;;;;;128.03;120.33;;;;;;;14.91;79.47;100109.25;5028360;28;20467;-69
2021/09/23 03:24:05;;;;;;;140.70;132.27;;;;;;;14.87;78.70;100097.88;5027652;28;20489;-69
2021/09/23 03:26:34;;;;;;;156.93;147.57;;;;;;;14.76;79.73;100097.22;5028873;28;20917;-69
2021/09/23 03:29:02;;;;;;;141.80;133.33;;;;;;;14.94;78.56;100098.13;5043964;28;20490;-69
2021/09/23 03:31:32;;;;;;;120.47;113.20;;;;;;;14.96;78.63;100098.84;5028325;28;20577;-70
2021/09/23 03:34:01;;;;;;;108.77;102.10;;;;;;;14.95;78.14;100088.16;5027440;28;20805;-69
2021/09/23 03:36:29;;;;;;;105.50;99.03;;;;;;;15.06;77.11;100088.00;5027640;28;20480;-69
2021/09/23 03:38:58;;;;;;;126.33;118.60;;;;;;;14.96;78.14;100087.16;5027377;28;20455;-70
2021/09/23 03:41:26;;;;;;;129.13;121.30;;;;;;;15.04;77.12;100080.03;5029167;28;20466;-69
2021/09/23 03:43:54;;;;;;;98.80;92.60;;;;;;;14.95;77.99;100083.63;5028632;28;20428;-69
2021/09/23 03:46:23;;;;;;;104.67;98.17;;;;;;;15.02;77.96;100082.06;5027257;28;20474;-70
2021/09/23 03:48:52;;;;;;;103.07;96.67;;;;;;;14.95;78.75;100077.34;5026845;28;20462;-69
2021/09/23 03:51:21;;;;;;;76.63;71.77;;;;;;;15.01;78.19;100065.97;5043907;28;20467;-69
2021/09/23 03:53:50;;;;;;;90.37;84.73;;;;;;;14.94;78.78;100060.28;5043699;28;20530;-70
2021/09/23 03:56:18;;;;;;;127.00;119.33;;;;;;;14.92;78.37;100046.06;5042955;28;20704;-69
2021/09/23 03:58:47;;;;;;;138.43;130.10;;;;;;;15.03;77.43;100050.44;5041448;28;20481;-69
2021/09/23 04:01:16;;;;;;;76.27;71.47;;;;;;;15.03;77.30;100037.78;5038947;28;20478;-69
2021/09/23 04:03:45;;;;;;;112.67;105.77;;;;;;;14.92;77.78;100021.72;5040625;28;20469;-70
2021/09/23 04:06:15;;;;;;;95.90;89.93;;;;;;;14.94;78.33;100025.13;5037668;28;20478;-70
2021/09/23 04:08:43;;;;;;;68.70;64.30;;;;;;;14.97;78.28;100019.41;5020730;28;20474;-69
2021/09/23 04:11:16;;;;;;;78.33;73.37;;;;;;;14.94;77.53;100005.34;5039897;28;20503;-70
2021/09/23 04:13:45;;;;;;;76.93;72.03;;;;;;;14.96;78.49;100006.91;5041243;28;20493;-68
2021/09/23 04:16:14;;;;;;;78.80;73.83;;;;;;;15.07;78.29;100001.31;5019038;28;20557;-68
2021/09/23 04:18:43;;;;;;;83.07;77.87;;;;;;;15.12;77.85;99996.28;5023063;28;20471;-69
2021/09/23 04:21:11;;;;;;;87.30;81.87;;;;;;;15.14;77.99;99988.88;5040333;28;20849;-69
2021/09/23 04:23:41;;;;;;;83.70;78.43;;;;;;;15.19;79.02;99977.59;5023809;28;20498;-68
2021/09/23 04:26:09;;;;;;;88.53;83.03;;;;;;;15.10;78.67;99975.81;5022651;28;20514;-69
2021/09/23 04:28:37;;;;;;;74.83;70.07;;;;;;;15.10;78.60;99967.69;5040996;28;20537;-69
2021/09/23 04:31:05;;;;;;;75.07;70.30;;;;;;;15.15;77.96;99968.09;5023088;28;20476;-69
2021/09/23 04:33:35;;;;;;;75.17;70.43;;;;;;;15.20;78.29;99966.63;5022854;28;20518;-69
2021/09/23 04:36:04;;;;;;;74.73;70.00;;;;;;;15.11;78.51;99956.72;5011121;28;20845;-69
2021/09/23 04:38:32;;;;;;;75.57;70.80;;;;;;;15.13;78.46;99946.59;5021499;28;20628;-70
2021/09/23 04:41:01;;;;;;;80.57;75.50;;;;;;;15.19;77.87;99940.56;5040686;28;20467;-70
2021/09/23 04:43:30;;;;;;;80.47;75.43;;;;;;;15.09;78.18;99918.16;5017453;28;20480;-69
2021/09/23 04:45:58;;;;;;;78.77;73.77;;;;;;;15.26;76.61;99916.47;5022810;28;20462;-70
2021/09/23 04:48:26;;;;;;;64.27;60.10;;;;;;;15.22;77.74;99909.66;5024505;28;21001;-68
2021/09/23 04:50:55;;;;;;;81.87;76.73;;;;;;;15.20;76.56;99895.44;5031434;28;21759;-68
2021/09/23 04:53:23;;;;;;;81.77;76.60;;;;;;;15.14;77.63;99898.78;5009429;28;22385;-68
2021/09/23 04:55:51;;;;;;;78.80;73.80;;;;;;;15.08;77.62;99870.50;5006743;28;20482;-69
2021/09/23 04:58:21;;;;;;;80.60;75.50;;;;;;;14.83;77.64;99830.69;5031380;28;20466;-68
2021/09/23 05:00:49;;;;;;;66.33;62.03;;;;;;;15.06;77.41;99867.09;5035517;28;20494;-69
2021/09/23 05:03:18;;;;;;;65.27;61.00;;;;;;;14.44;77.85;99763.44;5015633;28;20578;-69
2021/09/23 05:05:47;;;;;;;65.93;61.67;;;;;;;15.05;77.58;99862.69;5023968;28;20467;-69
2021/09/23 05:08:15;;;;;;;67.07;62.77;;;;;;;15.09;77.25;99869.50;5021081;28;20459;-69
2021/09/23 05:10:44;;;;;;;77.17;72.30;;;;;;;15.09;77.33;99874.91;5043385;28;21016;-70
2021/09/23 05:13:12;;;;;;;77.17;72.27;;;;;;;15.06;77.21;99858.13;5031212;28;20475;-70
2021/09/23 05:15:42;;;;;;;77.03;72.17;;;;;;;15.02;77.36;99852.19;5030370;28;20474;-70
2021/09/23 05:18:11;;;;;;;76.50;71.63;;;;;;;15.04;77.15;99852.03;5030653;28;20458;-70
2021/09/23 05:20:39;;;;;;;77.07;72.20;;;;;;;14.99;77.58;99855.19;5029944;28;20490;-70
2021/09/23 05:23:07;;;;;;;74.70;70.00;;;;;;;15.01;77.64;99838.81;5024288;28;20794;-69
2021/09/23 05:25:36;;;;;;;80.03;75.03;;;;;;;15.07;77.13;99839.06;5029772;28;20463;-70
2021/09/23 05:28:05;;;;;;;77.37;72.47;;;;;;;15.14;76.51;99834.72;5025310;28;20454;-70
2021/09/23 05:30:33;;;;;;;84.80;79.50;;;;;;;15.09;76.93;99820.81;5030701;28;20834;-70
2021/09/23 05:33:03;;;;;;;79.53;74.53;;;;;;;15.01;77.69;99822.59;5025375;28;20490;-71
2021/09/23 05:35:31;;;;;;;77.33;72.47;;;;;;;14.96;78.04;99814.09;5026518;28;20444;-70
2021/09/23 05:37:59;;;;;;;87.10;81.67;;;;;;;14.80;77.35;99766.97;5019819;28;20473;-69
2021/09/23 05:40:27;;;;;;;76.03;71.23;;;;;;;14.97;77.90;99786.88;5027542;28;20506;-70
2021/09/23 05:42:56;;;;;;;69.67;65.20;;;;;;;14.93;78.58;99784.66;5030346;28;20804;-69
2021/09/23 05:45:25;;;;;;;75.43;70.63;;;;;;;14.94;78.31;99783.66;5027634;28;20475;-69
2021/09/23 05:47:54;;;;;;;70.57;66.07;;;;;;;14.98;78.10;99768.81;5026305;28;21528;-68
2021/09/23 05:50:23;;;;;;;69.47;65.03;;;;;;;14.78;78.20;99738.41;5029685;28;20806;-69
2021/09/23 05:52:52;;;;;;;63.30;59.20;;;;;;;14.95;79.01;99771.81;5029108;28;20533;-69
2021/09/23 05:55:20;;;;;;;72.83;68.20;;;;;;;14.85;79.11;99753.00;5030305;28;20523;-69
2021/09/23 05:57:48;;;;;;;136.43;128.23;;;;;;;14.88;79.53;99744.56;5028722;28;20447;-70
2021/09/23 06:00:18;;;;;;;89.83;84.17;;;;;;;15.02;79.03;99748.59;5024231;28;20525;-70
2021/09/23 06:02:46;;;;;;;82.67;77.40;;;;;;;14.93;79.43;99744.94;5028436;28;20474;-69
2021/09/23 06:05:17;;;;;;;84.10;78.70;;;;;;;15.05;78.70;99729.34;5027954;28;20517;-70
2021/09/23 06:07:47;;;;;;;136.30;127.97;;;;;;;15.02;78.60;99713.44;5028276;28;20798;-70
2021/09/23 06:10:16;;;;;;;99.70;93.43;;;;;;;14.94;78.78;99706.09;5028424;28;21045;-70
2021/09/23 06:12:44;;;;;;;160.27;150.77;;;;;;;14.88;79.35;99695.91;5028052;28;20488;-70
2021/09/23 06:15:13;;;;;;;148.83;139.90;;;;;;;15.00;78.76;99693.78;5032523;28;20466;-69
2021/09/23 06:17:45;;;;;;;166.70;156.80;;;;;;;15.03;78.57;99683.53;5024064;28;20512;-70
2021/09/23 06:20:14;;;;;;;160.63;151.07;;;;;;;15.04;78.07;99669.00;5028252;28;20502;-70
2021/09/23 06:22:42;;;;;;;150.67;141.67;;;;;;;14.97;78.80;99656.25;5028367;28;20514;-69
2021/09/23 06:25:12;;;;;;;134.67;126.50;;;;;;;15.01;78.70;99650.41;5028506;28;20983;-69
2021/09/23 06:27:41;;;;;;;127.20;119.50;;;;;;;14.98;79.24;99656.09;5019766;28;20480;-69
2021/09/23 06:30:12;;;;;;;156.10;146.77;;;;;;;15.04;78.30;99633.84;5022992;28;20962;-69
2021/09/23 06:32:40;;;;;;;101.80;95.43;;;;;;;15.12;77.79;99633.88;5026711;28;21396;-69
2021/09/23 06:35:09;;;;;;;145.97;137.17;;;;;;;15.05;78.90;99621.19;5027517;28;20498;-69
2021/09/23 06:37:46;;;;;;;142.27;133.70;;;;;;;15.02;79.23;99610.69;5022537;28;20467;-70
2021/09/23 06:40:16;;;;;;;155.50;146.23;;;;;;;14.91;79.20;99604.53;5020737;28;20496;-69
2021/09/23 06:42:45;;;;;;;125.40;117.70;;;;;;;14.96;79.19;99609.44;5040107;28;20476;-70
2021/09/23 06:45:14;;;;;;;166.67;156.80;;;;;;;14.83;78.81;99563.94;5027437;28;20446;-70
2021/09/23 06:47:42;;;;;;;85.93;80.43;;;;;;;14.99;79.35;99592.03;5022799;28;20464;-70
2021/09/23 06:50:11;;;;;;;100.33;94.07;;;;;;;15.11;76.29;99575.41;5024194;28;20459;-69
2021/09/23 06:52:40;;;;;;;86.90;81.47;;;;;;;15.10;78.44;99572.84;5023849;28;20555;-69
2021/09/23 06:55:09;;;;;;;74.37;69.60;;;;;;;15.01;78.61;99566.56;5033276;28;20488;-70
2021/09/23 06:57:38;;;;;;;86.77;81.30;;;;;;;15.12;78.43;99557.31;5027239;28;20459;-70
2021/09/23 07:00:26;;;;;;;70.93;66.40;;;;;;;15.15;76.94;99549.72;5019668;28;20470;-69
2021/09/23 07:03:21;;;;;;;76.77;71.90;;;;;;;15.06;78.41;99539.88;5011880;28;20478;-70
2021/09/23 07:06:05;;;;;;;125.07;117.50;;;;;;;14.96;79.30;99527.47;5024417;28;20516;-70
2021/09/23 07:08:33;;;;;;;103.93;97.53;;;;;;;15.02;78.73;99519.59;5043955;28;20458;-70
2021/09/23 07:11:04;;;;;;;100.30;94.10;;;;;;;14.99;79.30;99503.66;5043579;28;20477;-70
2021/09/23 07:13:34;;;;;;;132.40;124.43;;;;;;;15.04;79.09;99517.56;5037321;28;20590;-70
2021/09/23 07:16:02;;;;;;;130.77;122.90;;;;;;;15.06;79.14;99518.25;5020413;28;20465;-70
2021/09/23 07:18:31;;;;;;;116.77;109.70;;;;;;;15.18;78.65;99500.72;5016392;28;20481;-70
2021/09/23 07:20:59;;;;;;;134.03;125.97;;;;;;;15.14;79.49;99499.34;5025293;28;20487;-70
2021/09/23 07:23:27;;;;;;;137.27;129.07;;;;;;;15.17;78.84;99484.66;5042962;28;20466;-70
2021/09/23 07:25:56;;;;;;;147.57;138.80;;;;;;;15.13;79.06;99467.06;5025060;28;20475;-70
2021/09/23 07:28:25;;;;;;;154.83;145.70;;;;;;;15.06;79.33;99445.25;5023582;28;20463;-70
2021/09/23 07:30:54;;;;;;;130.47;122.60;;;;;;;14.98;78.74;99426.28;5021712;28;20471;-70
2021/09/23 07:33:24;;;;;;;139.20;130.87;;;;;;;15.28;77.88;99465.41;5026007;28;20472;-70
2021/09/23 07:35:53;;;;;;;123.70;116.23;;;;;;;15.26;78.75;99455.75;5014113;28;20475;-70
2021/09/23 07:38:21;;;;;;;134.37;126.30;;;;;;;15.21;78.97;99457.09;5026012;28;20464;-70
2021/09/23 07:40:49;;;;;;;130.60;122.77;;;;;;;15.26;78.87;99455.75;5026961;28;20470;-70
2021/09/23 07:43:17;;;;;;;133.90;125.90;;;;;;;15.20;79.50;99433.78;5028022;28;20935;-70
2021/09/23 07:45:45;;;;;;;150.03;141.13;;;;;;;15.28;78.40;99437.50;5025093;28;20854;-70
2021/09/23 07:48:15;;;;;;;130.83;123.00;;;;;;;15.22;79.25;99428.19;5039739;28;20467;-70
2021/09/23 07:50:44;;;;;;;141.67;133.20;;;;;;;15.23;79.65;99425.31;5026304;28;20470;-70
2021/09/23 07:53:12;;;;;;;128.67;120.93;;;;;;;14.97;81.61;99419.19;5013898;28;20546;-70
2021/09/23 07:55:40;;;;;;;142.37;133.87;;;;;;;14.95;81.67;99414.94;5040307;28;20567;-70
2021/09/23 07:58:08;;;;;;;134.27;126.23;;;;;;;15.03;79.92;99401.47;5026350;28;20827;-71
2021/09/23 08:00:38;;;;;;;82.40;77.20;;;;;;;14.93;82.25;99398.91;5021044;28;20496;-70
2021/09/23 08:03:06;;;;;;;123.07;115.67;;;;;;;14.83;82.63;99380.13;5024361;28;20463;-70
2021/09/23 08:05:38;;;;;;;71.83;67.27;;;;;;;14.81;83.54;99376.75;5026564;28;20858;-73
2021/09/23 08:08:08;;;;;;;115.20;108.23;;;;;;;14.82;83.53;99366.78;5038922;28;20459;-72
2021/09/23 08:10:37;;;;;;;110.03;103.27;;;;;;;14.76;83.63;99357.47;5038142;28;20949;-73
2021/09/23 08:13:08;;;;;;;69.90;65.33;;;;;;;14.73;84.49;99346.16;5032101;28;20458;-73
2021/09/23 08:15:36;;;;;;;143.57;132.53;;;;;;;14.73;84.65;99343.44;5028444;28;20479;-72
2021/09/23 08:18:22;;;;;;;69.87;65.27;;;;;;;14.80;84.95;99330.97;5019099;28;20610;-72
2021/09/23 08:21:03;;;;;;;73.40;68.63;;;;;;;14.86;85.03;99338.41;5034884;28;20490;-73
2021/09/23 08:23:32;;;;;;;74.17;68.53;;;;;;;14.87;85.73;99318.47;5022843;28;20993;-73
2021/09/23 08:26:16;;;;;;;67.93;63.47;;;;;;;14.85;86.09;99306.97;5026704;28;20529;-72
2021/09/23 08:28:44;;;;;;;87.97;82.40;;;;;;;14.71;86.84;99277.91;5022455;28;20470;-72
2021/09/23 08:31:15;;;;;;;77.67;72.67;;;;;;;14.83;86.60;99284.69;5041625;28;20562;-72
2021/09/23 08:33:44;;;;;;;68.60;64.10;;;;;;;14.95;84.53;99296.00;5039835;28;20478;-72
2021/09/23 08:36:16;;;;;;;68.77;64.23;;;;;;;15.05;83.67;99296.69;5031324;28;20548;-72
2021/09/23 08:38:45;;;;;;;72.77;68.03;;;;;;;15.08;83.48;99280.97;5020402;28;20509;-72
2021/09/23 08:41:14;;;;;;;76.70;71.73;;;;;;;15.04;84.83;99268.81;5043132;28;20845;-72
2021/09/23 08:43:42;;;;;;;90.63;84.87;;;;;;;14.93;85.77;99271.00;5026276;28;21052;-73
2021/09/23 08:46:10;;;;;;;83.23;77.93;;;;;;;14.95;85.96;99259.00;5028308;28;20572;-72
2021/09/23 08:48:38;;;;;;;73.80;69.00;;;;;;;14.89;85.68;99235.34;5036343;28;20474;-72
2021/09/23 08:51:08;;;;;;;90.93;85.23;;;;;;;14.86;86.08;99208.66;5043208;28;20520;-72
2021/09/23 08:53:40;;;;;;;80.80;75.63;;;;;;;14.97;85.67;99219.13;5042176;28;20553;-73
2021/09/23 08:56:12;;;;;;;76.23;71.30;;;;;;;14.95;86.87;99204.06;5042365;28;20490;-72
2021/09/23 08:58:40;;;;;;;129.73;121.87;;;;;;;14.96;86.67;99198.50;5021934;28;20878;-72
2021/09/23 09:01:13;;;;;;;127.57;119.80;;;;;;;15.09;83.43;99179.06;5029595;28;20435;-72
2021/09/23 09:04:04;;;;;;;150.87;141.83;;;;;;;15.19;84.46;99172.44;5029831;28;20480;-73
2021/09/23 09:06:56;;;;;;;121.97;114.53;;;;;;;15.28;82.78;99180.53;5024462;28;20545;-72
2021/09/23 09:09:51;;;;;;;117.20;110.07;;;;;;;15.29;84.37;99166.84;5025945;28;20470;-72
2021/09/23 09:12:19;;;;;;;95.87;89.90;;;;;;;15.26;85.43;99152.81;5024896;28;20458;-72
2021/09/23 09:14:49;;;;;;;113.57;106.63;;;;;;;15.33;85.61;99157.38;5021400;28;20517;-72
2021/09/23 09:17:20;;;;;;;75.90;71.07;;;;;;;15.39;85.31;99145.03;5026127;28;20946;-73
2021/09/23 09:19:57;;;;;;;122.30;114.90;;;;;;;15.36;85.80;99123.72;5028107;28;20497;-72
2021/09/23 09:22:28;;;;;;;75.23;70.10;;;;;;;15.12;85.53;99084.09;5041128;28;20526;-72
2021/09/23 09:25:01;;;;;;;75.00;70.20;;;;;;;15.30;86.15;99083.84;5023873;28;20471;-72
2021/09/23 09:27:32;;;;;;;69.63;65.17;;;;;;;15.35;84.59;99076.91;5028060;28;20463;-73
2021/09/23 09:30:05;;;;;;;105.90;99.40;;;;;;;15.22;84.79;99045.00;5028225;28;20795;-73
2021/09/23 09:32:38;;;;;;;75.10;70.30;;;;;;;15.17;85.89;99033.03;5029351;28;20594;-72
2021/09/23 09:35:08;;;;;;;89.00;83.47;;;;;;;15.32;86.63;99027.72;5044019;28;20494;-72
2021/09/23 09:37:38;;;;;;;86.77;81.30;;;;;;;15.26;86.73;99028.41;5028678;28;20469;-72
2021/09/23 09:40:13;;;;;;;120.87;113.53;;;;;;;15.20;86.88;99014.56;5045331;28;20471;-73
2021/09/23 09:42:46;;;;;;;104.53;98.10;;;;;;;15.36;84.98;99013.66;5024947;28;20461;-72
2021/09/23 09:45:20;;;;;;;116.87;109.77;;;;;;;15.31;83.88;98982.75;5023403;28;20461;-72
2021/09/23 09:47:53;;;;;;;124.23;116.73;;;;;;;15.47;82.21;98977.25;5026675;28;20856;-72
2021/09/23 09:50:24;;;;;;;126.60;118.97;;;;;;;15.43;84.02;98965.94;5046123;28;20466;-73
2021/09/23 09:52:57;;;;;;;101.10;94.83;;;;;;;15.16;85.26;98931.28;5043924;28;20471;-72
2021/09/23 09:55:30;;;;;;;78.60;73.63;;;;;;;15.35;82.67;98957.88;5019674;28;20527;-72
2021/09/23 09:57:59;;;;;;;72.40;67.80;;;;;;;14.83;85.10;98877.41;5026214;28;21032;-73
2021/09/23 10:00:30;;;;;;;86.87;81.47;;;;;;;15.26;85.17;98985.13;5045512;28;20455;-73
2021/09/23 10:03:00;;;;;;;73.87;69.20;;;;;;;15.32;85.35;99042.09;5025940;28;20536;-72
2021/09/23 10:05:35;;;;;;;103.53;97.17;;;;;;;13.99;83.36;98824.88;5022303;28;20459;-73
2021/09/23 10:08:08;;;;;;;68.30;63.93;;;;;;;15.20;82.75;99029.97;5042412;28;20537;-72
2021/09/23 10:10:40;;;;;;;69.60;65.13;;;;;;;15.27;80.66;99019.28;5028787;28;20555;-72
2021/09/23 10:13:09;;;;;;;78.30;73.37;;;;;;;15.15;81.25;99027.78;5026792;28;20525;-72
2021/09/23 10:15:38;;;;;;;73.07;68.43;;;;;;;15.06;80.36;99000.97;5024301;28;20499;-72
2021/09/23 10:18:07;;;;;;;75.67;70.87;;;;;;;14.96;79.93;99016.53;5023470;28;20558;-72
2021/09/23 10:20:42;;;;;;;78.83;73.87;;;;;;;14.99;79.18;99014.31;5044794;28;20530;-71
2021/09/23 10:23:12;;;;;;;72.00;67.43;;;;;;;14.98;78.20;99014.50;5025543;28;20571;-71
2021/09/23 10:25:51;;;;;;;66.00;61.73;;;;;;;14.85;79.13;99020.47;5045003;28;20517;-71
2021/09/23 10:28:21;;;;;;;74.40;69.60;;;;;;;14.67;81.00;98995.50;5014682;28;20478;-71
2021/09/23 10:30:49;;;;;;;80.77;75.60;;;;;;;14.74;81.74;98991.13;5027089;28;20439;-71
2021/09/23 10:33:20;;;;;;;83.70;78.37;;;;;;;14.70;81.53;98973.56;5024212;28;20473;-71
2021/09/23 10:35:50;;;;;;;64.67;60.43;;;;;;;14.82;80.99;98969.47;5023273;28;21046;-71
2021/09/23 10:38:22;;;;;;;75.70;70.80;;;;;;;14.82;80.85;98978.41;5040831;28;20476;-71
2021/09/23 10:40:52;;;;;;;78.47;73.43;;;;;;;14.83;80.36;98961.19;5029137;28;20821;-71
2021/09/23 10:43:21;;;;;;;77.27;72.30;;;;;;;14.88;79.79;98968.75;5026652;28;20475;-71
2021/09/23 10:45:54;;;;;;;77.27;72.30;;;;;;;14.80;80.37;98960.69;5029283;28;20463;-71
2021/09/23 10:48:25;;;;;;;72.13;67.40;;;;;;;14.77;79.27;98937.56;5025555;28;20851;-71
2021/09/23 10:50:54;;;;;;;81.70;76.50;;;;;;;14.75;78.90;98933.34;5021665;28;20457;-71
2021/09/23 10:53:23;;;;;;;82.30;77.03;;;;;;;14.73;78.72;98930.84;5033855;28;20492;-71
2021/09/23 10:56:03;;;;;;;67.97;63.53;;;;;;;14.75;79.89;98941.47;5023579;28;20529;-71
2021/09/23 10:58:39;;;;;;;83.23;77.93;;;;;;;14.72;80.14;98945.34;5026616;28;20743;-71
2021/09/23 11:01:08;;;;;;;74.00;69.20;;;;;;;14.61;81.72;98937.63;5021693;28;20530;-71
2021/09/23 11:03:38;;;;;;;84.23;78.87;;;;;;;14.42;79.48;98879.41;5026667;28;20467;-71
2021/09/23 11:06:09;;;;;;;101.23;94.93;;;;;;;14.78;80.10;98935.72;5021412;28;20923;-71
2021/09/23 11:08:41;;;;;;;73.37;68.63;;;;;;;14.74;80.78;98912.75;5040219;28;20511;-71
2021/09/23 11:11:11;;;;;;;73.70;68.93;;;;;;;14.82;80.54;98923.53;5022783;28;20470;-71
2021/09/23 11:13:41;;;;;;;77.93;72.93;;;;;;;14.81;80.68;98913.72;5020907;28;20481;-71
2021/09/23 11:16:11;;;;;;;83.43;78.10;;;;;;;14.82;80.41;98918.97;5019370;28;20566;-71
2021/09/23 11:18:41;;;;;;;84.97;79.40;;;;;;;14.73;79.33;98889.44;5024345;28;20745;-71
2021/09/23 11:21:10;;;;;;;63.20;59.07;;;;;;;14.79;79.21;98896.84;5019100;28;20578;-71
2021/09/23 11:23:39;;;;;;;74.40;69.57;;;;;;;14.84;80.08;98887.19;5043132;28;20521;-71